createdAt,value
2022-09-21T00:00:17.399Z,80.20
2022-09-21T00:02:51.581Z,79.90
2022-09-21T00:05:25.831Z,79.80
2022-09-21T00:07:59.530Z,80.00
2022-09-21T00:10:34.023Z,79.90
2022-09-21T00:13:04.590Z,79.70
2022-09-21T00:15:45.641Z,79.70
2022-09-21T00:18:25.658Z,79.70
2022-09-21T00:20:59.598Z,79.60
2022-09-21T00:23:27.093Z,79.50
2022-09-21T00:26:15.609Z,79.60
2022-09-21T00:28:44.989Z,79.70
2022-09-21T00:31:21.775Z,79.70
2022-09-21T00:33:57.518Z,79.80
2022-09-21T00:36:32.648Z,79.80
2022-09-21T00:39:08.700Z,80.00
2022-09-21T00:41:36.373Z,80.10
2022-09-21T00:44:30.859Z,80.20
2022-09-21T00:47:11.770Z,79.90
2022-09-21T00:49:47.673Z,80.00
2022-09-21T00:52:20.033Z,80.30
2022-09-21T00:54:58.703Z,80.10
2022-09-21T00:57:37.558Z,79.70
2022-09-21T01:00:16.759Z,79.60
2022-09-21T01:02:44.994Z,79.70
2022-09-21T01:05:18.711Z,79.80
2022-09-21T01:07:48.936Z,79.70
2022-09-21T01:10:26.763Z,80.00
2022-09-21T01:13:09.633Z,80.10
2022-09-21T01:16:20.805Z,79.70
2022-09-21T01:18:58.833Z,79.50
2022-09-21T01:21:51.654Z,79.40
2022-09-21T01:24:34.131Z,79.50
2022-09-21T01:27:24.903Z,79.60
2022-09-21T01:30:12.548Z,79.60
2022-09-21T01:33:18.673Z,79.40
2022-09-21T01:35:59.719Z,79.60
2022-09-21T01:38:32.365Z,79.50
2022-09-21T01:41:10.773Z,79.40
2022-09-21T01:43:52.858Z,79.30
2022-09-21T01:46:22.933Z,79.40
2022-09-21T01:49:06.215Z,79.40
2022-09-21T01:51:36.753Z,79.30
2022-09-21T01:54:19.697Z,79.20
2022-09-21T01:57:15.718Z,79.40
2022-09-21T01:59:57.409Z,79.30
2022-09-21T02:02:43.539Z,79.60
2022-09-21T02:05:13.175Z,79.60
2022-09-21T02:07:47.603Z,79.30
2022-09-21T02:10:29.933Z,79.00
2022-09-21T02:13:08.604Z,79.00
2022-09-21T02:16:07.907Z,79.10
2022-09-21T02:19:02.975Z,78.80
2022-09-21T02:21:41.683Z,78.60
2022-09-21T02:24:23.313Z,78.70
2022-09-21T02:27:07.663Z,78.70
2022-09-21T02:29:44.133Z,78.50
2022-09-21T02:32:40.763Z,78.40
2022-09-21T02:35:33.059Z,78.70
2022-09-21T02:38:37.584Z,78.70
2022-09-21T02:41:27.879Z,78.90
2022-09-21T02:44:25.610Z,79.40
2022-09-21T02:47:04.859Z,78.90
2022-09-21T02:49:45.664Z,78.60
2022-09-21T02:52:16.426Z,78.60
2022-09-21T02:54:54.714Z,78.60
2022-09-21T02:57:24.863Z,78.40
2022-09-21T02:59:59.965Z,78.50
2022-09-21T03:02:38.273Z,78.50
2022-09-21T03:05:14.628Z,78.60
2022-09-21T03:07:52.689Z,78.50
2022-09-21T03:10:20.648Z,78.70
2022-09-21T03:12:54.529Z,78.50
2022-09-21T03:15:41.757Z,78.50
2022-09-21T03:18:18.029Z,78.60
2022-09-21T03:20:46.579Z,78.60
2022-09-21T03:23:20.699Z,78.70
2022-09-21T03:25:48.623Z,78.60
2022-09-21T03:28:22.603Z,78.50
2022-09-21T03:30:51.675Z,78.50
2022-09-21T03:33:28.692Z,78.40
2022-09-21T03:35:56.885Z,78.40
2022-09-21T03:38:32.709Z,78.50
2022-09-21T03:41:00.103Z,78.40
2022-09-21T03:43:33.814Z,78.50
2022-09-21T03:46:07.677Z,78.80
2022-09-21T03:48:35.203Z,78.40
2022-09-21T03:51:08.613Z,78.20
2022-09-21T03:53:36.378Z,78.00
2022-09-21T03:56:12.743Z,78.10
2022-09-21T03:58:40.164Z,78.30
2022-09-21T04:01:14.657Z,78.50
2022-09-21T04:03:48.798Z,78.60
2022-09-21T04:06:22.878Z,78.40
2022-09-21T04:08:55.469Z,78.20
2022-09-21T04:11:30.665Z,78.40
2022-09-21T04:14:04.713Z,78.50
2022-09-21T04:16:51.674Z,78.40
2022-09-21T04:19:27.633Z,78.30
2022-09-21T04:22:02.873Z,78.30
2022-09-21T04:24:31.584Z,78.30
2022-09-21T04:27:05.839Z,78.40
2022-09-21T04:29:39.628Z,78.30
2022-09-21T04:32:13.993Z,78.40
2022-09-21T04:34:47.803Z,78.50
2022-09-21T04:37:21.748Z,78.80
2022-09-21T04:39:49.243Z,79.00
2022-09-21T04:42:23.768Z,79.00
2022-09-21T04:44:58.669Z,78.70
2022-09-21T04:47:32.752Z,78.50
2022-09-21T04:50:06.734Z,78.50
2022-09-21T04:52:40.704Z,78.50
2022-09-21T04:55:15.759Z,78.50
2022-09-21T04:57:43.159Z,78.70
2022-09-21T05:00:19.709Z,78.90
2022-09-21T05:02:46.939Z,78.90
2022-09-21T05:05:20.540Z,79.10
2022-09-21T05:07:47.814Z,78.90
2022-09-21T05:10:21.920Z,78.90
2022-09-21T05:12:49.223Z,78.80
2022-09-21T05:15:22.796Z,78.90
2022-09-21T05:18:03.715Z,79.00
2022-09-21T05:20:38.005Z,79.10
2022-09-21T05:23:16.151Z,79.00
2022-09-21T05:25:44.893Z,79.00
2022-09-21T05:28:19.843Z,79.30
2022-09-21T05:31:16.646Z,79.30
2022-09-21T05:34:20.445Z,79.10
2022-09-21T05:37:11.833Z,78.90
2022-09-21T05:39:40.147Z,78.90
2022-09-21T05:42:14.737Z,78.90
2022-09-21T05:44:44.343Z,78.90
2022-09-21T05:47:53.953Z,78.90
2022-09-21T05:50:39.874Z,79.00
2022-09-21T05:53:25.583Z,78.90
2022-09-21T05:56:23.394Z,78.80
2022-09-21T05:59:00.663Z,79.20
2022-09-21T06:01:46.634Z,79.10
2022-09-21T06:04:20.654Z,79.10
2022-09-21T06:06:54.953Z,79.30
2022-09-21T06:09:22.608Z,79.30
2022-09-21T06:11:56.784Z,79.30
2022-09-21T06:14:29.763Z,79.20
2022-09-21T06:17:10.743Z,79.30
2022-09-21T06:19:38.422Z,79.20
2022-09-21T06:22:12.902Z,79.00
2022-09-21T06:24:41.673Z,79.00
2022-09-21T06:27:15.924Z,78.90
2022-09-21T06:29:43.181Z,78.80
2022-09-21T06:32:18.823Z,78.90
2022-09-21T06:34:47.960Z,79.00
2022-09-21T06:37:22.656Z,78.90
2022-09-21T06:39:49.934Z,78.80
2022-09-21T06:42:23.692Z,79.20
2022-09-21T06:44:52.853Z,79.20
2022-09-21T06:47:26.915Z,78.90
2022-09-21T06:49:54.854Z,78.80
2022-09-21T06:52:22.205Z,78.70
2022-09-21T06:54:56.400Z,78.90
2022-09-21T06:57:24.430Z,79.00
2022-09-21T06:59:58.864Z,79.00
2022-09-21T07:02:26.204Z,79.30
2022-09-21T07:04:59.760Z,79.30
2022-09-21T07:07:30.757Z,79.00
2022-09-21T07:10:14.378Z,78.90
2022-09-21T07:12:44.169Z,79.00
2022-09-21T07:15:18.914Z,79.10
2022-09-21T07:18:04.847Z,79.00
2022-09-21T07:20:40.148Z,78.80
2022-09-21T07:23:18.588Z,78.70
2022-09-21T07:25:57.631Z,78.90
2022-09-21T07:28:25.349Z,78.90
2022-09-21T07:30:58.895Z,79.10
2022-09-21T07:33:36.033Z,79.20
2022-09-21T07:36:10.964Z,79.20
2022-09-21T07:38:49.719Z,79.10
2022-09-21T07:41:17.014Z,78.80
2022-09-21T07:43:50.689Z,78.90
2022-09-21T07:46:17.934Z,78.90
2022-09-21T07:48:51.894Z,79.00
2022-09-21T07:51:19.537Z,79.00
2022-09-21T07:53:53.695Z,78.90
2022-09-21T07:56:21.095Z,78.90
2022-09-21T07:59:13.929Z,78.90
2022-09-21T08:01:49.198Z,78.90
2022-09-21T08:04:23.121Z,78.80
2022-09-21T08:06:56.829Z,78.80
2022-09-21T08:09:24.219Z,78.90
2022-09-21T08:11:58.717Z,78.90
2022-09-21T08:14:26.741Z,78.80
2022-09-21T08:17:07.784Z,78.80
2022-09-21T08:19:36.778Z,79.00
2022-09-21T08:22:10.845Z,79.00
2022-09-21T08:24:45.942Z,78.90
2022-09-21T08:27:20.079Z,78.80
2022-09-21T08:29:55.745Z,79.00
2022-09-21T08:32:46.925Z,79.10
2022-09-21T08:35:18.690Z,79.10
2022-09-21T08:37:52.684Z,79.10
2022-09-21T08:40:20.817Z,79.10
2022-09-21T08:43:17.003Z,79.10
2022-09-21T08:45:46.475Z,79.00
2022-09-21T08:48:42.579Z,78.80
2022-09-21T08:51:15.022Z,78.80
2022-09-21T08:53:57.385Z,78.70
2022-09-21T08:56:47.143Z,78.70
2022-09-21T08:59:37.832Z,78.70
2022-09-21T09:02:38.718Z,78.60
2022-09-21T09:05:28.934Z,78.70
2022-09-21T09:08:06.796Z,78.70
2022-09-21T09:11:02.664Z,78.70
2022-09-21T09:13:48.071Z,78.70
2022-09-21T09:16:27.796Z,78.40
2022-09-21T09:19:32.873Z,78.20
2022-09-21T09:22:11.724Z,78.20
2022-09-21T09:24:52.798Z,78.20
2022-09-21T09:27:36.930Z,78.40
2022-09-21T09:30:11.086Z,78.40
2022-09-21T09:33:08.877Z,78.30
2022-09-21T09:35:54.720Z,78.30
2022-09-21T09:38:31.553Z,78.30
2022-09-21T09:41:32.757Z,78.30
2022-09-21T09:44:09.293Z,78.20
2022-09-21T09:47:09.783Z,78.00
2022-09-21T09:49:40.564Z,78.00
2022-09-21T09:52:19.876Z,78.00
2022-09-21T09:54:48.885Z,78.10
2022-09-21T09:57:29.803Z,78.10
2022-09-21T10:00:10.092Z,78.10
2022-09-21T10:02:56.173Z,78.00
2022-09-21T10:05:33.968Z,77.70
2022-09-21T10:08:10.062Z,77.60
2022-09-21T10:10:48.062Z,77.40
2022-09-21T10:13:19.046Z,77.60
2022-09-21T10:16:04.797Z,77.70
2022-09-21T10:19:02.264Z,77.70
2022-09-21T10:21:47.695Z,77.50
2022-09-21T10:24:46.590Z,77.20
2022-09-21T10:27:22.828Z,77.20
2022-09-21T10:29:59.162Z,77.10
2022-09-21T10:32:30.573Z,76.90
2022-09-21T10:35:17.978Z,76.90
2022-09-21T10:38:01.987Z,76.70
2022-09-21T10:40:38.061Z,76.50
2022-09-21T10:43:05.863Z,76.40
2022-09-21T10:45:44.328Z,76.20
2022-09-21T10:48:28.242Z,76.20
2022-09-21T10:51:04.731Z,76.10
2022-09-21T10:53:41.768Z,76.10
2022-09-21T10:56:25.833Z,76.00
2022-09-21T10:59:30.768Z,76.00
2022-09-21T11:02:06.982Z,75.90
2022-09-21T11:05:00.277Z,75.50
2022-09-21T11:07:58.798Z,75.30
2022-09-21T11:10:45.874Z,75.40
2022-09-21T11:13:28.118Z,75.50
2022-09-21T11:16:03.793Z,75.40
2022-09-21T11:19:01.733Z,75.10
2022-09-21T11:21:53.689Z,75.10
2022-09-21T11:24:27.718Z,74.80
2022-09-21T11:27:10.798Z,74.60
2022-09-21T11:30:07.817Z,74.40
2022-09-21T11:32:44.857Z,74.10
2022-09-21T11:35:33.717Z,73.70
2022-09-21T11:38:29.920Z,73.40
2022-09-21T11:41:29.009Z,73.10
2022-09-21T11:44:28.658Z,73.00
2022-09-21T11:47:19.738Z,72.70
2022-09-21T11:50:29.848Z,72.40
2022-09-21T11:53:23.055Z,72.00
2022-09-21T11:55:59.728Z,71.60
2022-09-21T11:58:47.024Z,71.20
2022-09-21T12:01:29.157Z,71.10
2022-09-21T12:04:05.918Z,70.90
2022-09-21T12:06:54.213Z,70.60
2022-09-21T12:09:52.778Z,70.50
2022-09-21T12:12:39.048Z,70.20
2022-09-21T12:15:51.836Z,70.10
2022-09-21T12:18:42.489Z,70.00
2022-09-21T12:21:32.785Z,70.10
2022-09-21T12:24:53.843Z,69.90
2022-09-21T12:27:46.739Z,69.60
2022-09-21T12:30:21.345Z,69.30
2022-09-21T12:33:21.979Z,69.20
2022-09-21T12:35:58.580Z,69.10
2022-09-21T12:38:56.781Z,68.80
2022-09-21T12:41:37.432Z,68.80
2022-09-21T12:44:23.977Z,68.60
2022-09-21T12:47:15.814Z,68.40
2022-09-21T12:49:47.838Z,68.40
2022-09-21T12:52:32.396Z,68.20
2022-09-21T12:55:25.025Z,68.60
2022-09-21T12:58:15.180Z,68.90
2022-09-21T13:00:58.987Z,68.30
2022-09-21T13:03:36.827Z,67.90
2022-09-21T13:06:34.822Z,67.70
2022-09-21T13:09:11.172Z,67.60
2022-09-21T13:11:55.862Z,67.30
2022-09-21T13:14:36.805Z,67.30
2022-09-21T13:17:25.033Z,67.20
2022-09-21T13:20:23.089Z,67.10
2022-09-21T13:23:01.306Z,67.10
2022-09-21T13:25:38.135Z,67.10
2022-09-21T13:28:17.447Z,67.00
2022-09-21T13:30:56.845Z,67.00
2022-09-21T13:33:30.765Z,66.70
2022-09-21T13:36:02.341Z,66.80
2022-09-21T13:38:43.750Z,66.80
2022-09-21T13:41:45.469Z,66.60
2022-09-21T13:44:45.305Z,66.60
2022-09-21T13:47:22.980Z,66.40
2022-09-21T13:49:56.003Z,66.20
2022-09-21T13:52:49.991Z,66.20
2022-09-21T13:55:40.700Z,66.20
2022-09-21T13:58:38.897Z,66.20
2022-09-21T14:01:45.629Z,66.30
2022-09-21T14:04:32.183Z,66.00
2022-09-21T14:07:20.705Z,66.00
2022-09-21T14:10:05.980Z,65.90
2022-09-21T14:12:46.825Z,65.80
2022-09-21T14:15:23.370Z,65.50
2022-09-21T14:18:54.822Z,65.40
2022-09-21T14:21:30.332Z,65.20
2022-09-21T14:24:12.868Z,65.00
2022-09-21T14:26:49.995Z,64.90
2022-09-21T14:29:46.276Z,64.90
2022-09-21T14:32:22.010Z,64.90
2022-09-21T14:34:57.977Z,64.90
2022-09-21T14:37:27.421Z,64.90
2022-09-21T14:40:02.982Z,64.80
2022-09-21T14:42:39.251Z,64.90
2022-09-21T14:45:20.168Z,65.00
2022-09-21T14:48:14.926Z,65.10
2022-09-21T14:51:00.766Z,65.20
2022-09-21T14:53:45.867Z,65.20
2022-09-21T14:56:40.415Z,65.20
2022-09-21T14:59:38.035Z,65.50
2022-09-21T15:02:27.716Z,65.60
2022-09-21T15:05:10.835Z,65.70
2022-09-21T15:08:27.462Z,65.50
2022-09-21T15:11:08.195Z,65.20
2022-09-21T15:14:05.196Z,64.90
2022-09-21T15:16:49.887Z,65.00
2022-09-21T15:19:35.981Z,65.10
2022-09-21T15:22:30.252Z,65.20
2022-09-21T15:25:02.826Z,65.20
2022-09-21T15:27:39.848Z,65.00
2022-09-21T15:30:07.636Z,65.00
2022-09-21T15:32:53.990Z,65.00
2022-09-21T15:35:37.138Z,65.00
2022-09-21T15:38:04.803Z,64.90
2022-09-21T15:40:41.682Z,64.90
2022-09-21T15:43:19.491Z,64.80
2022-09-21T15:46:09.831Z,64.80
2022-09-21T15:48:48.756Z,64.80
2022-09-21T15:51:36.776Z,64.80
2022-09-21T15:54:40.875Z,64.80
2022-09-21T15:57:27.440Z,64.80
2022-09-21T16:00:02.947Z,64.80
2022-09-21T16:02:36.966Z,64.80
2022-09-21T16:05:16.670Z,64.90
2022-09-21T16:07:47.396Z,64.70
2022-09-21T16:10:39.891Z,64.70
2022-09-21T16:13:44.015Z,64.90
2022-09-21T16:16:21.894Z,64.90
2022-09-21T16:19:07.080Z,64.90
2022-09-21T16:21:38.165Z,65.20
2022-09-21T16:24:25.820Z,65.30
2022-09-21T16:27:02.393Z,65.40
2022-09-21T16:29:48.928Z,65.50
2022-09-21T16:32:20.836Z,65.60
2022-09-21T16:35:01.773Z,65.70
2022-09-21T16:37:29.659Z,65.90
2022-09-21T16:40:00.487Z,66.10
2022-09-21T16:42:39.974Z,66.50
2022-09-21T16:45:17.323Z,66.80
2022-09-21T16:47:50.878Z,67.30
2022-09-21T16:50:28.213Z,67.60
2022-09-21T16:52:55.904Z,68.00
2022-09-21T16:55:29.915Z,68.30
2022-09-21T16:58:00.521Z,68.20
2022-09-21T17:00:37.999Z,68.40
2022-09-21T17:03:05.978Z,68.90
2022-09-21T17:05:40.063Z,69.00
2022-09-21T17:08:10.512Z,69.10
2022-09-21T17:10:51.016Z,69.20
2022-09-21T17:13:21.065Z,69.50
2022-09-21T17:15:55.898Z,69.90
2022-09-21T17:18:29.946Z,70.30
2022-09-21T17:21:03.844Z,70.50
2022-09-21T17:23:31.207Z,70.60
2022-09-21T17:26:05.133Z,70.50
2022-09-21T17:28:32.653Z,70.30
2022-09-21T17:31:06.793Z,70.20
2022-09-21T17:33:34.428Z,70.20
2022-09-21T17:36:09.113Z,70.20
2022-09-21T17:38:42.838Z,70.20
2022-09-21T17:41:41.903Z,70.20
2022-09-21T17:44:16.755Z,70.40
2022-09-21T17:47:06.297Z,70.60
2022-09-21T17:49:33.690Z,70.90
2022-09-21T17:52:26.035Z,71.00
2022-09-21T17:54:53.665Z,71.40
2022-09-21T17:57:48.113Z,71.60
2022-09-21T18:00:25.447Z,71.40
2022-09-21T18:03:01.136Z,71.40
2022-09-21T18:05:30.744Z,71.40
2022-09-21T18:08:05.823Z,71.80
2022-09-21T18:10:33.084Z,71.70
2022-09-21T18:13:38.903Z,71.70
2022-09-21T18:16:31.228Z,72.00
2022-09-21T18:19:51.038Z,71.90
2022-09-21T18:22:38.768Z,71.80
2022-09-21T18:25:22.958Z,71.90
2022-09-21T18:27:58.008Z,72.00
2022-09-21T18:30:33.149Z,72.20
2022-09-21T18:33:10.143Z,72.40
2022-09-21T18:36:28.014Z,72.40
2022-09-21T18:39:03.333Z,72.60
2022-09-21T18:41:54.208Z,72.60
2022-09-21T18:44:44.738Z,72.70
2022-09-21T18:47:27.825Z,72.90
2022-09-21T18:50:04.393Z,73.10
2022-09-21T18:52:48.879Z,73.20
2022-09-21T18:55:28.563Z,73.30
2022-09-21T18:58:04.103Z,73.50
2022-09-21T19:00:32.811Z,73.60
2022-09-21T19:03:18.103Z,73.40
2022-09-21T19:06:09.216Z,73.50
2022-09-21T19:09:16.881Z,73.40
2022-09-21T19:11:58.949Z,73.20
2022-09-21T19:14:38.817Z,73.20
2022-09-21T19:17:54.066Z,73.50
2022-09-21T19:20:43.938Z,73.70
2022-09-21T19:23:32.999Z,73.60
2022-09-21T19:26:34.940Z,73.70
2022-09-21T19:29:32.861Z,73.40
2022-09-21T19:32:00.190Z,73.30
2022-09-21T19:34:28.632Z,73.20
2022-09-21T19:37:07.723Z,73.20
2022-09-21T19:39:44.732Z,73.20
2022-09-21T19:42:42.936Z,73.30
2022-09-21T19:45:28.851Z,73.50
2022-09-21T19:48:09.858Z,73.70
2022-09-21T19:50:59.918Z,73.80
2022-09-21T19:53:52.978Z,73.70
2022-09-21T19:56:39.128Z,73.50
2022-09-21T19:59:32.219Z,73.70
2022-09-21T20:02:12.032Z,73.70
2022-09-21T20:05:09.079Z,73.50
2022-09-21T20:08:00.169Z,73.60
2022-09-21T20:10:54.038Z,73.70
2022-09-21T20:13:38.045Z,73.80
2022-09-21T20:16:18.956Z,73.60
2022-09-21T20:19:24.968Z,73.60
2022-09-21T20:21:59.291Z,73.90
2022-09-21T20:24:49.183Z,73.90
2022-09-21T20:27:38.793Z,73.80
2022-09-21T20:30:19.506Z,73.70
2022-09-21T20:33:02.228Z,73.70
2022-09-21T20:35:34.470Z,73.70
2022-09-21T20:38:09.889Z,73.90
2022-09-21T20:40:37.198Z,73.90
2022-09-21T20:43:12.764Z,73.90
2022-09-21T20:45:48.092Z,74.20
2022-09-21T20:48:22.901Z,74.10
2022-09-21T20:50:50.872Z,73.70
2022-09-21T20:53:25.874Z,73.70
2022-09-21T20:55:58.524Z,73.70
2022-09-21T20:58:31.818Z,73.60
2022-09-21T21:01:09.055Z,73.50
2022-09-21T21:03:42.785Z,73.60
2022-09-21T21:06:21.263Z,74.10
2022-09-21T21:08:54.932Z,74.20
2022-09-21T21:11:22.902Z,74.40
2022-09-21T21:13:57.084Z,74.10
2022-09-21T21:16:24.624Z,73.90
2022-09-21T21:19:05.938Z,73.70
2022-09-21T21:21:40.260Z,73.50
2022-09-21T21:24:33.290Z,73.40
2022-09-21T21:27:02.876Z,73.60
2022-09-21T21:29:31.136Z,73.80
2022-09-21T21:32:05.949Z,74.20
2022-09-21T21:34:39.964Z,74.30
2022-09-21T21:37:13.856Z,74.30
2022-09-21T21:39:41.196Z,74.10
2022-09-21T21:42:15.936Z,74.30
2022-09-21T21:44:49.846Z,74.20
2022-09-21T21:50:13.871Z,74.20
2022-09-21T21:52:48.094Z,74.30
2022-09-21T21:55:15.456Z,74.30
2022-09-21T21:57:48.963Z,74.40
2022-09-21T22:00:16.699Z,74.50
2022-09-21T22:02:52.080Z,74.40
2022-09-21T22:05:19.211Z,74.30
2022-09-21T22:07:57.664Z,74.30
2022-09-21T22:10:25.795Z,74.20
2022-09-21T22:12:59.833Z,74.20
2022-09-21T22:15:27.411Z,74.30
2022-09-21T22:18:01.112Z,74.20
2022-09-21T22:20:35.325Z,74.30
2022-09-21T22:23:08.940Z,74.40
2022-09-21T22:25:36.275Z,74.50
2022-09-21T22:28:10.300Z,74.60
2022-09-21T22:30:37.621Z,74.80
2022-09-21T22:33:11.867Z,74.90
2022-09-21T22:35:45.962Z,75.10
2022-09-21T22:38:20.726Z,75.10
2022-09-21T22:40:49.567Z,75.00
2022-09-21T22:43:23.926Z,75.00
2022-09-21T22:45:59.991Z,74.80
2022-09-21T22:48:28.235Z,74.70
2022-09-21T22:51:02.793Z,74.60
2022-09-21T22:53:38.035Z,74.60
2022-09-21T22:56:16.091Z,74.60
2022-09-21T22:58:55.064Z,74.70
2022-09-21T23:01:31.613Z,74.90
2022-09-21T23:04:15.311Z,74.90
2022-09-21T23:06:44.278Z,74.90
2022-09-21T23:09:24.878Z,74.90
2022-09-21T23:11:56.022Z,74.90
2022-09-21T23:14:30.853Z,74.80
2022-09-21T23:17:19.884Z,74.90
2022-09-21T23:19:54.394Z,74.90
2022-09-21T23:22:21.414Z,75.00
2022-09-21T23:24:54.840Z,75.00
2022-09-21T23:27:23.645Z,75.00
2022-09-21T23:29:58.276Z,75.00
2022-09-21T23:32:28.752Z,74.90
2022-09-21T23:35:04.045Z,75.00
2022-09-21T23:37:31.677Z,75.10
2022-09-21T23:40:05.902Z,75.20
2022-09-21T23:42:33.549Z,75.20
2022-09-21T23:45:07.014Z,75.20
2022-09-21T23:47:34.303Z,75.20
2022-09-21T23:50:08.438Z,75.10
2022-09-21T23:52:35.614Z,75.00
2022-09-21T23:55:08.872Z,75.00
2022-09-21T23:57:36.248Z,75.00
